旭川 の空港の天気 - METARとTAF

旭川空港 ( RJEC / AKJ ) - 北海道旭川市
飛行場実況気象(Metar)
観測時間09/18 13:00 JST (09/18 04:00 UTC)
風向・風速南 8m/s
視程10km以上
天気現象
少しの雲 雲底高度 300m
全天の4割程度の雲 雲底高度 910m
全天の8割程度の雲 雲底高度 3660m
気温18℃
湿度60%
気圧1007hPa
METARRJEC 180400Z 17015KT 9999 FEW010 SCT030 BKN120 18/10 Q1007
過去の天気等 Google飛行場航空写真 Wunderground天気予報

過去48時間のMETAR

飛行場予報(TAF)
発表時間: 9/18 08:11 JST (9/17 23:11 UTC)
予報対象時間: 18日9時 JST ~ 19日15時 JST
風向・風速北北西 3m/s
視程10km以上
少しの雲 雲底高度 910m
全天の4割程度の雲 雲底高度 1520m
18日9時 JST ~ 18日11時 JST に徐々に
風向・風速南 8m/s
18日18時 JST ~ 18日21時 JST に一時的に
視程4000m
天気現象しゅう雨 もや
少しの雲 雲底高度 150m
全天の8割程度の雲 雲底高度 240m
少しの積乱雲 雲底高度 760m
18日21時 JST ~ 18日24時 JST に一時的に
視程3000m
天気現象雷雨 もや
少しの雲 雲底高度 90m
全天の8割程度の雲 雲底高度 180m
少しの積乱雲 雲底高度 760m
18日21時 JST ~ 18日24時 JST に徐々に
風向・風速西 4m/s
19日6時 JST ~ 19日9時 JST に徐々に
風向・風速南南西 6m/s
TAF RJEC 172311Z 1800/1906 34005KT 9999 FEW030 SCT050
BECMG 1800/1802 18015KT
TEMPO 1809/1812 4000 SHRA BR FEW005 BKN008 FEW025CB
TEMPO 1812/1815 3000 TSRA BR FEW003 BKN006 FEW025CB
BECMG 1812/1815 27007KT
BECMG 1821/1900 21011KT
日本の空港のMETAR・TAFへのリンク

RJTT 東京国際空港
RJAA 新東京国際空港
RJBB 関西国際空港
RJOO 大阪空港
RJGG 中部国際空港
RJCC 新千歳空港
RJFF 福岡空港
ROAH 那覇空港


RJEC 旭川空港
RJCH 函館空港
RJCK 釧路空港
RJCM 女満別空港
RJCB 帯広空港
RJSA 青森空港
RJSS 仙台空港
RJSK 秋田空港
RJSF 福島空港
RJAH 茨城空港
RJSN 新潟空港
RJNT 富山空港
RJNK 小松飛行場
RJNS 静岡空港
RJOH 美保飛行場
RJOC 出雲空港
RJOB 岡山空港
RJOA 広島空港
RJOI 岩国飛行場
RJOT 高松空港
RJOM 松山空港
RJOK 高知空港
RJFR 北九州空港
RJFT 熊本空港
RJFU 長崎空港
RJFS 佐賀空港
RJFO 大分空港
RJFM 宮崎空港
RJFK 鹿児島空港
ROIG 石垣島空港
RJTY 横田飛行場
ROTM 普天間飛行場
RODN 嘉手納飛行場